Time;durP1;ratioP1;P1;durP2;ratioP2;P2;SDS_P1;SDS_P2;PMS_P1;PMS_P2;Temp;Humidity;BMP_temperature;BMP_pressure;BME280_temperature;BME280_humidity;BME280_pressure;Samples;Min_cycle;Max_cycle;Signal;HPM_P1;HPM_P2
2023/11/26 00:01:46;;;;;;;1.77;1.40;;;;;;;;;;4977011;28;20406;-61
2023/11/26 00:04:12;;;;;;;4.07;1.93;;;;;;;;;;4963712;28;20035;-61
2023/11/26 00:06:43;;;;;;;2.87;1.50;;;;;;;;;;4969147;28;20031;-61
2023/11/26 00:09:10;;;;;;;5.10;1.63;;;;;;;;;;4973141;28;20030;-61
2023/11/26 00:11:36;;;;;;;4.03;2.13;;;;;;;;;;4973056;28;20142;-61
2023/11/26 00:14:02;;;;;;;3.07;1.63;;;;;;;;;;4971659;28;20026;-61
2023/11/26 00:16:29;;;;;;;3.07;1.40;;;;;;;;;;4972996;28;20117;-61
2023/11/26 00:18:56;;;;;;;3.43;1.57;;;;;;;;;;4968129;28;20070;-61
2023/11/26 00:21:23;;;;;;;4.17;1.90;;;;;;;;;;4959036;28;20050;-61
2023/11/26 00:23:50;;;;;;;4.20;1.87;;;;;;;;;;4964544;28;20105;-61
2023/11/26 00:26:16;;;;;;;2.70;2.00;;;;;;;;;;4972233;28;20029;-61
2023/11/26 00:28:42;;;;;;;3.30;1.70;;;;;;;;;;4959405;28;20033;-61
2023/11/26 00:31:09;;;;;;;2.20;1.53;;;;;;;;;;4958999;28;20509;-61
2023/11/26 00:33:35;;;;;;;3.17;1.57;;;;;;;;;;4966880;28;20093;-61
2023/11/26 00:36:01;;;;;;;2.77;1.47;;;;;;;;;;4966197;28;20086;-61
2023/11/26 00:38:27;;;;;;;4.37;1.97;;;;;;;;;;4965422;28;20042;-61
2023/11/26 00:40:53;;;;;;;2.33;1.93;;;;;;;;;;4961320;28;20469;-61
2023/11/26 00:43:19;;;;;;;2.57;1.57;;;;;;;;;;4972181;28;20050;-61
2023/11/26 00:45:45;;;;;;;2.27;1.80;;;;;;;;;;4965494;28;20023;-61
2023/11/26 00:48:11;;;;;;;2.27;1.33;;;;;;;;;;4968054;28;20038;-61
2023/11/26 00:50:37;;;;;;;1.60;1.20;;;;;;;;;;4963221;28;20048;-61
2023/11/26 00:53:04;;;;;;;2.30;1.07;;;;;;;;;;4976439;28;20473;-61
2023/11/26 00:55:30;;;;;;;2.60;1.40;;;;;;;;;;4958988;28;20031;-61
2023/11/26 00:57:57;;;;;;;2.33;1.20;;;;;;;;;;4968553;28;20499;-61
2023/11/26 01:00:23;;;;;;;2.50;1.17;;;;;;;;;;4961436;28;20520;-61
2023/11/26 01:02:50;;;;;;;1.40;1.03;;;;;;;;;;4970042;28;20035;-62
2023/11/26 01:05:16;;;;;;;2.97;1.10;;;;;;;;;;4968634;28;20030;-61
2023/11/26 01:07:42;;;;;;;3.03;1.07;;;;;;;;;;4975596;28;20049;-61
2023/11/26 01:10:08;;;;;;;2.10;1.20;;;;;;;;;;4979537;28;20456;-61
2023/11/26 01:12:34;;;;;;;1.87;1.00;;;;;;;;;;4979032;28;20027;-61
2023/11/26 01:15:00;;;;;;;2.00;1.03;;;;;;;;;;4976331;28;20078;-61
2023/11/26 01:17:27;;;;;;;1.20;0.60;;;;;;;;;;4978173;28;20027;-61
2023/11/26 01:19:53;;;;;;;1.70;1.10;;;;;;;;;;4962895;28;20469;-61
2023/11/26 01:22:18;;;;;;;3.97;1.30;;;;;;;;;;4981971;28;20117;-61
2023/11/26 01:24:44;;;;;;;1.73;1.00;;;;;;;;;;4976636;28;20055;-61
2023/11/26 01:27:10;;;;;;;2.47;1.60;;;;;;;;;;4981837;28;20027;-61
2023/11/26 01:29:36;;;;;;;3.40;1.20;;;;;;;;;;4975897;28;20504;-61
2023/11/26 01:32:02;;;;;;;2.70;1.20;;;;;;;;;;4982133;28;20054;-61
2023/11/26 01:34:28;;;;;;;1.33;0.93;;;;;;;;;;4985421;28;20041;-61
2023/11/26 01:36:54;;;;;;;1.10;1.00;;;;;;;;;;4975840;28;20018;-61
2023/11/26 01:39:20;;;;;;;1.80;1.37;;;;;;;;;;4977238;28;20539;-61
2023/11/26 01:41:46;;;;;;;1.23;0.80;;;;;;;;;;4975963;28;20154;-61
2023/11/26 01:44:12;;;;;;;1.63;1.00;;;;;;;;;;4970968;28;20043;-60
2023/11/26 01:46:38;;;;;;;0.93;0.60;;;;;;;;;;4980152;28;20041;-61
2023/11/26 01:49:04;;;;;;;1.63;1.00;;;;;;;;;;4988757;28;20022;-61
2023/11/26 01:51:32;;;;;;;1.30;1.00;;;;;;;;;;4980604;28;20122;-62
2023/11/26 01:53:59;;;;;;;2.47;1.00;;;;;;;;;;4961848;28;20514;-61
2023/11/26 01:56:25;;;;;;;2.17;1.20;;;;;;;;;;4975135;28;20035;-61
2023/11/26 01:58:52;;;;;;;2.07;1.00;;;;;;;;;;4978279;28;20036;-61
2023/11/26 02:01:21;;;;;;;3.30;1.10;;;;;;;;;;4975643;28;20501;-61
2023/11/26 02:03:47;;;;;;;0.80;0.63;;;;;;;;;;4975243;28;20023;-61
2023/11/26 02:06:13;;;;;;;1.53;0.93;;;;;;;;;;4970817;28;20037;-61
2023/11/26 02:08:39;;;;;;;1.00;0.60;;;;;;;;;;4975224;28;20441;-61
2023/11/26 02:11:05;;;;;;;0.57;0.50;;;;;;;;;;4957699;28;20377;-61
2023/11/26 02:13:31;;;;;;;0.93;0.67;;;;;;;;;;4979023;28;20027;-61
2023/11/26 02:15:57;;;;;;;1.50;0.80;;;;;;;;;;4974187;28;20570;-61
2023/11/26 02:18:25;;;;;;;1.50;0.73;;;;;;;;;;4978843;28;20026;-62
2023/11/26 02:20:51;;;;;;;1.50;0.87;;;;;;;;;;4978551;28;20033;-61
2023/11/26 02:23:17;;;;;;;0.90;0.70;;;;;;;;;;4976705;28;20043;-61
2023/11/26 02:25:43;;;;;;;1.17;0.80;;;;;;;;;;4975026;28;20034;-61
2023/11/26 02:28:10;;;;;;;1.67;0.70;;;;;;;;;;4971575;28;20027;-61
2023/11/26 02:30:36;;;;;;;1.50;0.70;;;;;;;;;;4974681;28;20047;-61
2023/11/26 02:33:02;;;;;;;2.80;1.20;;;;;;;;;;4984010;28;20035;-61
2023/11/26 02:35:28;;;;;;;1.17;0.83;;;;;;;;;;4974225;28;20031;-61
2023/11/26 02:37:56;;;;;;;2.77;0.97;;;;;;;;;;4979291;28;20058;-61
2023/11/26 02:40:24;;;;;;;6.00;1.03;;;;;;;;;;4956329;28;20027;-62
2023/11/26 02:42:50;;;;;;;2.30;1.10;;;;;;;;;;4967792;28;20042;-61
2023/11/26 02:45:16;;;;;;;2.83;1.30;;;;;;;;;;4974271;28;20058;-61
2023/11/26 02:47:43;;;;;;;3.50;0.70;;;;;;;;;;4977825;28;20070;-61
2023/11/26 02:50:10;;;;;;;2.63;1.10;;;;;;;;;;4970940;28;20058;-61
2023/11/26 02:52:36;;;;;;;3.00;1.33;;;;;;;;;;4974753;28;20041;-61
2023/11/26 02:55:02;;;;;;;1.40;1.00;;;;;;;;;;4973935;28;20114;-61
2023/11/26 02:57:28;;;;;;;2.63;1.10;;;;;;;;;;4976512;28;20130;-61
2023/11/26 02:59:56;;;;;;;2.70;1.00;;;;;;;;;;4974290;28;20035;-61
2023/11/26 03:02:22;;;;;;;2.53;1.17;;;;;;;;;;4976836;28;20047;-61
2023/11/26 03:04:52;;;;;;;2.80;1.10;;;;;;;;;;4979833;28;20031;-61
2023/11/26 03:07:20;;;;;;;2.63;1.07;;;;;;;;;;4975554;28;20035;-61
2023/11/26 03:15:18;;;;;;;2.80;0.90;;;;;;;;;;4974460;28;20073;-61
2023/11/26 03:17:44;;;;;;;3.73;1.70;;;;;;;;;;4973884;28;20030;-61
2023/11/26 03:20:10;;;;;;;3.20;1.93;;;;;;;;;;4977625;28;20023;-62
2023/11/26 03:22:39;;;;;;;3.20;2.27;;;;;;;;;;4971285;28;20070;-61
2023/11/26 03:25:05;;;;;;;2.93;1.87;;;;;;;;;;4963841;28;20027;-61
2023/11/26 03:27:33;;;;;;;4.33;2.43;;;;;;;;;;4973468;28;20035;-61
2023/11/26 03:30:00;;;;;;;3.63;2.27;;;;;;;;;;4973537;28;20057;-61
2023/11/26 03:32:26;;;;;;;3.27;2.10;;;;;;;;;;4979531;28;20041;-61
2023/11/26 03:34:52;;;;;;;2.73;2.20;;;;;;;;;;4974586;28;20031;-61
2023/11/26 03:37:18;;;;;;;4.37;2.77;;;;;;;;;;4973351;28;20033;-61
2023/11/26 03:39:45;;;;;;;2.67;1.73;;;;;;;;;;4972082;28;20492;-61
2023/11/26 03:42:14;;;;;;;2.23;1.97;;;;;;;;;;4981321;28;20045;-60
2023/11/26 03:44:40;;;;;;;2.97;2.27;;;;;;;;;;4984182;28;20026;-60
2023/11/26 03:47:08;;;;;;;3.53;2.17;;;;;;;;;;4984160;28;20106;-61
2023/11/26 03:49:34;;;;;;;3.47;2.30;;;;;;;;;;4960651;28;20022;-61
2023/11/26 03:52:00;;;;;;;4.80;2.43;;;;;;;;;;4980781;28;20018;-61
2023/11/26 03:54:26;;;;;;;5.77;2.90;;;;;;;;;;4973739;28;20077;-61
2023/11/26 03:56:53;;;;;;;6.73;2.80;;;;;;;;;;4955220;28;20026;-61
2023/11/26 03:59:21;;;;;;;3.13;2.50;;;;;;;;;;4956664;28;20059;-61
2023/11/26 04:01:47;;;;;;;3.60;2.57;;;;;;;;;;4972230;28;20346;-60
2023/11/26 04:04:13;;;;;;;4.53;2.77;;;;;;;;;;4974816;28;20507;-60
2023/11/26 04:06:39;;;;;;;4.03;2.33;;;;;;;;;;4976956;28;20083;-60
2023/11/26 04:09:05;;;;;;;5.70;2.90;;;;;;;;;;4977716;28;20022;-61
2023/11/26 04:11:31;;;;;;;4.63;3.17;;;;;;;;;;4957859;28;20392;-60
2023/11/26 04:13:57;;;;;;;3.93;2.40;;;;;;;;;;4975620;28;20031;-61
2023/11/26 04:16:23;;;;;;;4.63;2.53;;;;;;;;;;4978375;28;20460;-61
2023/11/26 04:18:49;;;;;;;6.97;2.33;;;;;;;;;;4975240;28;20022;-60
2023/11/26 04:21:15;;;;;;;4.13;2.43;;;;;;;;;;4971654;28;20444;-60
2023/11/26 04:23:41;;;;;;;4.93;2.23;;;;;;;;;;4971472;28;20070;-60
2023/11/26 04:26:07;;;;;;;3.63;2.30;;;;;;;;;;4967013;28;20019;-60
2023/11/26 04:28:33;;;;;;;4.23;2.40;;;;;;;;;;4973762;28;20027;-60
2023/11/26 04:30:59;;;;;;;3.17;1.80;;;;;;;;;;4974814;28;20043;-60
2023/11/26 04:33:25;;;;;;;3.97;2.27;;;;;;;;;;4972535;28;20031;-60
2023/11/26 04:35:52;;;;;;;2.93;2.30;;;;;;;;;;4972328;28;20018;-60
2023/11/26 04:38:18;;;;;;;5.33;2.30;;;;;;;;;;4973778;28;20477;-60
2023/11/26 04:40:44;;;;;;;3.47;2.43;;;;;;;;;;4989127;28;20046;-60
2023/11/26 04:43:10;;;;;;;3.67;1.80;;;;;;;;;;4977929;28;20114;-60
2023/11/26 04:45:36;;;;;;;3.00;2.00;;;;;;;;;;4978081;28;20151;-60
2023/11/26 04:48:03;;;;;;;4.07;2.10;;;;;;;;;;4970920;28;20514;-60
2023/11/26 04:50:29;;;;;;;3.33;2.00;;;;;;;;;;4964761;28;20034;-59
2023/11/26 04:52:56;;;;;;;3.43;1.70;;;;;;;;;;4975842;28;20034;-60
2023/11/26 04:55:23;;;;;;;5.17;2.17;;;;;;;;;;4967688;28;20393;-60
2023/11/26 04:57:49;;;;;;;3.87;2.50;;;;;;;;;;4965617;28;20041;-60
2023/11/26 05:00:16;;;;;;;3.00;2.43;;;;;;;;;;4971611;28;20019;-60
2023/11/26 05:02:42;;;;;;;3.47;2.07;;;;;;;;;;4976131;28;20084;-60
2023/11/26 05:05:10;;;;;;;3.20;2.30;;;;;;;;;;4971876;28;20027;-60
2023/11/26 05:07:39;;;;;;;3.63;2.70;;;;;;;;;;4972525;28;20023;-60
2023/11/26 05:10:09;;;;;;;3.50;2.30;;;;;;;;;;4971831;28;20469;-60
2023/11/26 05:12:35;;;;;;;3.43;2.30;;;;;;;;;;4972051;28;20022;-60
2023/11/26 05:15:01;;;;;;;3.80;2.27;;;;;;;;;;4971580;28;20034;-60
2023/11/26 05:17:28;;;;;;;4.17;2.80;;;;;;;;;;4972196;28;20022;-60
2023/11/26 05:19:54;;;;;;;4.50;2.60;;;;;;;;;;4972224;28;20141;-60
2023/11/26 05:22:20;;;;;;;4.03;2.60;;;;;;;;;;4972249;28;20062;-60
2023/11/26 05:24:46;;;;;;;3.60;2.57;;;;;;;;;;4971594;28;20073;-60
2023/11/26 05:27:12;;;;;;;3.40;2.20;;;;;;;;;;4970760;28;20034;-60
2023/11/26 05:29:38;;;;;;;2.53;2.00;;;;;;;;;;4960433;28;20034;-60
2023/11/26 05:32:04;;;;;;;6.00;2.63;;;;;;;;;;4966386;28;20047;-60
2023/11/26 05:34:30;;;;;;;2.30;1.93;;;;;;;;;;4973372;28;20369;-60
2023/11/26 05:36:57;;;;;;;2.57;1.87;;;;;;;;;;4982970;28;20081;-60
2023/11/26 05:39:23;;;;;;;3.10;2.00;;;;;;;;;;4976207;28;20034;-60
2023/11/26 05:41:49;;;;;;;3.70;2.27;;;;;;;;;;4975624;28;20439;-60
2023/11/26 05:44:15;;;;;;;1.90;1.70;;;;;;;;;;4975832;28;20030;-60
2023/11/26 05:46:44;;;;;;;3.33;2.13;;;;;;;;;;4975479;28;20122;-60
2023/11/26 05:49:10;;;;;;;4.00;2.17;;;;;;;;;;4976584;28;20031;-60
2023/11/26 05:51:36;;;;;;;4.20;2.27;;;;;;;;;;4975340;28;20034;-60
2023/11/26 05:54:02;;;;;;;3.57;2.20;;;;;;;;;;4972443;28;20110;-60
2023/11/26 05:56:28;;;;;;;3.30;2.00;;;;;;;;;;4968825;28;20073;-60
2023/11/26 05:58:55;;;;;;;4.40;2.53;;;;;;;;;;4958784;28;20026;-60
2023/11/26 06:01:24;;;;;;;2.93;1.90;;;;;;;;;;4973311;28;20164;-60
2023/11/26 06:03:50;;;;;;;3.70;1.90;;;;;;;;;;4980224;28;20113;-60
2023/11/26 06:06:16;;;;;;;3.83;2.37;;;;;;;;;;4983195;28;20057;-60
2023/11/26 06:08:42;;;;;;;9.97;2.63;;;;;;;;;;4974838;28;20031;-60
2023/11/26 06:11:08;;;;;;;3.57;2.80;;;;;;;;;;4975930;28;20027;-60
2023/11/26 06:13:34;;;;;;;3.37;2.37;;;;;;;;;;4976738;28;20481;-60
2023/11/26 06:16:00;;;;;;;3.37;2.10;;;;;;;;;;4977093;28;20154;-60
2023/11/26 06:18:26;;;;;;;3.33;2.10;;;;;;;;;;4979100;28;20621;-60
2023/11/26 06:20:52;;;;;;;3.40;2.03;;;;;;;;;;4974953;28;20085;-60
2023/11/26 06:23:18;;;;;;;3.50;2.63;;;;;;;;;;4981778;28;20484;-60
2023/11/26 06:25:44;;;;;;;3.07;2.33;;;;;;;;;;4978952;28;20389;-60
2023/11/26 06:28:10;;;;;;;2.80;1.97;;;;;;;;;;4980169;28;20046;-61
2023/11/26 06:30:36;;;;;;;2.73;1.80;;;;;;;;;;4975549;28;20047;-60
2023/11/26 06:33:03;;;;;;;2.93;1.70;;;;;;;;;;4978533;28;20034;-60
2023/11/26 06:35:29;;;;;;;3.50;2.00;;;;;;;;;;4982420;28;20089;-60
2023/11/26 06:37:55;;;;;;;3.00;1.80;;;;;;;;;;4977537;28;20110;-60
2023/11/26 06:40:21;;;;;;;3.57;2.13;;;;;;;;;;4981541;28;20345;-60
2023/11/26 06:42:47;;;;;;;2.57;2.13;;;;;;;;;;4978015;28;20038;-60
2023/11/26 06:45:13;;;;;;;3.17;1.87;;;;;;;;;;4978406;28;20485;-60
2023/11/26 06:47:39;;;;;;;1.90;1.40;;;;;;;;;;4981757;28;20109;-60
2023/11/26 06:50:05;;;;;;;3.63;1.70;;;;;;;;;;4970822;28;20106;-60
2023/11/26 06:52:33;;;;;;;2.90;1.60;;;;;;;;;;4983450;28;20480;-60
2023/11/26 06:55:00;;;;;;;2.43;1.80;;;;;;;;;;4976450;28;21801;-60
2023/11/26 06:57:25;;;;;;;3.67;1.80;;;;;;;;;;4976924;28;20512;-60
2023/11/26 06:59:52;;;;;;;2.80;1.60;;;;;;;;;;4960869;28;20024;-60
2023/11/26 07:02:18;;;;;;;1.83;1.60;;;;;;;;;;4969915;28;20034;-60
2023/11/26 07:04:45;;;;;;;4.73;1.87;;;;;;;;;;4966189;28;20037;-60
2023/11/26 07:07:11;;;;;;;2.53;1.40;;;;;;;;;;4979332;28;20077;-60
2023/11/26 07:09:37;;;;;;;1.40;1.17;;;;;;;;;;4964091;28;20043;-60
2023/11/26 07:12:03;;;;;;;1.67;1.30;;;;;;;;;;4971243;28;20038;-60
2023/11/26 07:14:32;;;;;;;4.27;1.83;;;;;;;;;;4967740;28;20481;-60
2023/11/26 07:16:58;;;;;;;2.77;1.27;;;;;;;;;;4967990;28;20019;-60
2023/11/26 07:19:24;;;;;;;1.63;1.07;;;;;;;;;;4980392;28;20034;-60
2023/11/26 07:21:50;;;;;;;2.47;1.20;;;;;;;;;;4979335;28;20030;-60
2023/11/26 07:24:16;;;;;;;2.83;1.07;;;;;;;;;;4978104;28;20018;-60
2023/11/26 07:26:42;;;;;;;2.17;1.17;;;;;;;;;;4979084;28;20022;-60
2023/11/26 07:29:08;;;;;;;2.07;1.30;;;;;;;;;;4980264;28;20026;-61
2023/11/26 07:31:34;;;;;;;1.90;1.27;;;;;;;;;;4973545;28;20039;-60
2023/11/26 07:34:00;;;;;;;3.13;1.50;;;;;;;;;;4978172;28;20027;-60
2023/11/26 07:36:26;;;;;;;3.50;1.37;;;;;;;;;;4961647;28;20094;-60
2023/11/26 07:38:53;;;;;;;3.67;1.77;;;;;;;;;;4973919;28;20146;-60
2023/11/26 07:41:19;;;;;;;1.97;1.17;;;;;;;;;;4982292;28;20022;-61
2023/11/26 07:43:45;;;;;;;2.17;1.20;;;;;;;;;;4985016;28;20054;-61
2023/11/26 07:46:12;;;;;;;1.53;1.10;;;;;;;;;;4975002;28;20038;-61
2023/11/26 07:48:39;;;;;;;2.10;1.23;;;;;;;;;;4971926;28;20409;-61
2023/11/26 07:51:06;;;;;;;3.07;1.50;;;;;;;;;;4975078;28;20023;-61
2023/11/26 07:53:32;;;;;;;1.83;1.37;;;;;;;;;;4973750;28;20130;-61
2023/11/26 07:55:58;;;;;;;2.27;1.10;;;;;;;;;;4965703;28;20133;-61
2023/11/26 07:58:25;;;;;;;2.73;1.80;;;;;;;;;;4956395;28;20395;-61
2023/11/26 08:00:51;;;;;;;2.47;1.67;;;;;;;;;;4979083;28;20125;-62
2023/11/26 08:03:22;;;;;;;6.03;1.73;;;;;;;;;;4976780;28;20038;-61
2023/11/26 08:05:48;;;;;;;3.63;2.17;;;;;;;;;;4961365;28;20451;-61
2023/11/26 08:08:20;;;;;;;5.33;2.33;;;;;;;;;;4972779;28;20431;-61
2023/11/26 08:10:48;;;;;;;4.97;2.07;;;;;;;;;;4978145;28;20026;-61
2023/11/26 08:13:14;;;;;;;2.93;1.57;;;;;;;;;;4975963;28;20109;-61
2023/11/26 08:15:40;;;;;;;3.23;1.77;;;;;;;;;;4972000;28;20035;-61
2023/11/26 08:18:06;;;;;;;1.97;1.23;;;;;;;;;;4975523;28;20106;-61
2023/11/26 08:20:33;;;;;;;2.47;1.37;;;;;;;;;;4974738;28;20031;-61
2023/11/26 08:23:02;;;;;;;1.93;1.50;;;;;;;;;;4976744;28;20046;-61
2023/11/26 08:25:33;;;;;;;1.70;1.30;;;;;;;;;;4975237;28;20031;-62
2023/11/26 08:28:00;;;;;;;2.70;1.37;;;;;;;;;;4978181;28;20336;-61
2023/11/26 08:30:39;;;;;;;1.60;1.20;;;;;;;;;;4976307;28;20046;-61
2023/11/26 08:33:05;;;;;;;1.97;1.40;;;;;;;;;;4973047;28;20026;-61
2023/11/26 08:35:32;;;;;;;3.23;1.50;;;;;;;;;;4971084;28;20038;-61
2023/11/26 08:38:01;;;;;;;1.93;1.57;;;;;;;;;;4972683;28;20023;-61
2023/11/26 08:40:33;;;;;;;1.70;1.40;;;;;;;;;;4973981;28;20030;-61
2023/11/26 08:42:59;;;;;;;2.80;1.63;;;;;;;;;;4972405;28;20042;-61
2023/11/26 08:45:25;;;;;;;2.83;1.50;;;;;;;;;;4978281;28;20057;-61
2023/11/26 08:47:53;;;;;;;3.13;1.70;;;;;;;;;;4972256;28;20058;-61
2023/11/26 08:50:19;;;;;;;2.13;1.53;;;;;;;;;;4960041;28;20023;-61
2023/11/26 08:52:45;;;;;;;3.40;2.00;;;;;;;;;;4971529;28;20134;-61
2023/11/26 08:55:11;;;;;;;4.20;2.63;;;;;;;;;;4979753;28;20031;-66
2023/11/26 08:57:40;;;;;;;4.27;2.43;;;;;;;;;;4961665;28;20090;-62
2023/11/26 09:00:10;;;;;;;4.37;2.70;;;;;;;;;;4965564;28;20047;-61
2023/11/26 09:02:40;;;;;;;4.73;2.43;;;;;;;;;;4961941;28;20042;-61
2023/11/26 09:05:09;;;;;;;5.53;3.30;;;;;;;;;;4959245;28;20027;-61
2023/11/26 09:07:42;;;;;;;3.97;2.87;;;;;;;;;;4964142;28;20030;-61
2023/11/26 09:10:09;;;;;;;4.23;2.40;;;;;;;;;;4971556;28;20429;-61
2023/11/26 09:12:36;;;;;;;5.73;3.30;;;;;;;;;;4974519;28;20023;-61
2023/11/26 09:15:02;;;;;;;4.47;2.83;;;;;;;;;;4962925;28;20023;-61
2023/11/26 09:17:28;;;;;;;6.73;3.50;;;;;;;;;;4975496;28;20073;-61
2023/11/26 09:19:55;;;;;;;5.23;3.83;;;;;;;;;;4958210;28;20026;-61
2023/11/26 09:22:21;;;;;;;5.00;3.10;;;;;;;;;;4979881;28;20030;-61
2023/11/26 09:24:48;;;;;;;5.10;3.50;;;;;;;;;;4975640;28;20081;-61
2023/11/26 09:27:14;;;;;;;5.87;3.80;;;;;;;;;;4975917;28;20127;-61
2023/11/26 09:29:40;;;;;;;4.17;2.20;;;;;;;;;;4975455;28;20039;-59
2023/11/26 09:32:06;;;;;;;7.80;3.43;;;;;;;;;;4963847;28;20162;-61
2023/11/26 09:34:32;;;;;;;3.73;2.47;;;26.70;99.90;;;;;;4975396;28;20026;-61
2023/11/26 09:37:04;;;;;;;2.77;1.47;;;25.60;99.90;;;;;;4975558;28;20148;-61
2023/11/26 09:39:31;;;;;;;2.37;0.83;;;25.60;99.90;;;;;;4975795;28;20094;-62
2023/11/26 09:41:57;;;;;;;2.00;0.97;;;25.60;99.90;;;;;;4958083;28;20468;-61
2023/11/26 09:44:23;;;;;;;2.13;1.17;;;25.70;99.90;;;;;;4975461;28;20027;-61
2023/11/26 09:46:50;;;;;;;3.77;1.10;;;25.70;99.90;;;;;;4982048;28;20023;-61
2023/11/26 09:49:16;;;;;;;1.60;1.30;;;25.70;99.90;;;;;;4958308;28;20365;-62
2023/11/26 09:51:43;;;;;;;1.63;1.27;;;25.70;99.90;;;;;;4975562;28;20081;-61
2023/11/26 09:54:10;;;;;;;1.90;1.10;;;25.80;99.90;;;;;;4975748;28;20385;-61
2023/11/26 09:56:36;;;;;;;2.67;1.10;;;25.80;99.90;;;;;;4975458;28;20035;-61
2023/11/26 09:59:04;;;;;;;2.90;1.20;;;25.80;99.90;;;;;;4975731;28;20023;-59
2023/11/26 10:01:30;;;;;;;3.07;1.70;;;25.80;99.90;;;;;;4975331;28;20023;-59
2023/11/26 10:04:04;;;;;;;2.50;1.73;;;25.80;99.90;;;;;;4975482;28;20460;-58
2023/11/26 10:06:30;;;;;;;2.55;1.40;;;25.90;99.90;;;;;;4975244;28;20507;-59
2023/11/26 10:08:58;;;;;;;2.73;1.50;;;25.90;99.90;;;;;;4975281;28;20023;-59
2023/11/26 10:11:26;;;;;;;2.90;1.53;;;25.90;99.90;;;;;;4954422;29;20506;-59
2023/11/26 10:13:53;;;;;;;2.87;1.63;;;;;;;;;;4974217;28;20030;-59
2023/11/26 10:16:29;;;;;;;2.50;1.70;;;;;;;;;;4974977;28;20015;-59
2023/11/26 10:18:55;;;;;;;2.57;1.60;;;;;;;;;;4974526;28;20425;-59
2023/11/26 10:21:21;;;;;;;3.17;2.03;;;;;;;;;;4973339;28;20037;-59
2023/11/26 10:23:47;;;;;;;3.83;1.80;;;;;;;;;;4974754;28;20469;-59
2023/11/26 10:26:19;;;;;;;3.50;1.40;;;;;;;;;;4974625;28;20034;-59
2023/11/26 10:29:20;;;;;;;2.78;1.70;;;;;;;;;;4974705;28;20109;-59
2023/11/26 10:32:06;;;;;;;2.55;1.85;;;;;;;;;;4935146;28;20493;-59
2023/11/26 10:34:33;;;;;;;3.00;2.10;;;;;;;;;;4961454;28;20417;-60
2023/11/26 10:36:59;;;;;;;4.03;2.00;;;;;;;;;;4974499;28;20074;-59
2023/11/26 10:39:25;;;;;;;7.28;1.90;;;;;;;;;;4974513;28;20425;-59
2023/11/26 10:41:52;;;;;;;3.22;1.77;;;;;;;;;;4974824;28;20366;-60
2023/11/26 10:44:18;;;;;;;3.10;1.88;;;;;;;;;;4972153;28;20102;-60
2023/11/26 10:46:45;;;;;;;4.43;2.35;;;;;;;;;;4963742;28;20027;-59
2023/11/26 10:49:30;;;;;;;3.95;2.10;;;;;;;;;;4974429;28;20031;-59
2023/11/26 10:52:01;;;;;;;1.77;1.20;;;;;;;;;;4974308;28;20452;-59
2023/11/26 10:54:32;;;;;;;3.00;1.05;;;;;;;;;;4974357;28;20041;-59
2023/11/26 10:57:00;;;;;;;3.92;1.42;;;;;;;;;;4973302;28;20015;-62
2023/11/26 10:59:29;;;;;;;2.75;0.80;;;;;;;;;;4974326;28;20053;-62
2023/11/26 11:01:56;;;;;;;2.70;1.73;;;;;;;;;;4956428;28;20033;-62
2023/11/26 11:04:22;;;;;;;3.85;1.40;;;;;;;;;;4974007;28;20069;-62
2023/11/26 11:06:48;;;;;;;1.80;1.25;;;;;;;;;;4973878;28;20030;-62
2023/11/26 11:09:22;;;;;;;2.30;1.55;;;;;;;;;;4973904;28;20314;-62
2023/11/26 11:11:55;;;;;;;2.35;1.42;;;;;;;;;;4973181;28;20026;-62
2023/11/26 11:14:21;;;;;;;2.22;1.92;;;;;;;;;;4977314;28;20030;-62
2023/11/26 11:16:47;;;;;;;2.13;1.80;;;;;;;;;;4978931;28;20422;-60
2023/11/26 11:19:33;;;;;;;5.95;1.75;;;;;;;;;;4976226;28;20106;-61
2023/11/26 11:21:59;;;;;;;2.90;1.60;;;;;;;;;;4969954;28;20140;-59
2023/11/26 11:24:25;;;;;;;1.92;1.67;;;;;;;;;;4952101;28;20027;-58
2023/11/26 11:26:51;;;;;;;2.83;1.58;;;;;;;;;;4973461;28;20137;-58
2023/11/26 11:29:33;;;;;;;3.13;1.15;;;;;;;;;;4973650;28;20117;-58
2023/11/26 11:32:01;;;;;;;6.97;2.30;;;;;;;;;;4972496;28;20046;-57
2023/11/26 11:34:27;;;;;;;2.35;2.15;;;;;;;;;;4962545;28;20159;-58
2023/11/26 11:36:54;;;;;;;3.83;2.30;;;;;;;;;;4972611;28;20109;-57
2023/11/26 11:39:21;;;;;;;6.15;3.45;;;;;;;;;;4973510;28;20023;-58
2023/11/26 11:41:59;;;;;;;5.78;2.55;;;;;;;;;;4973274;28;20026;-59
2023/11/26 11:44:25;;;;;;;2.83;2.45;;;;;;;;;;4973306;28;20128;-57
2023/11/26 11:46:51;;;;;;;4.35;2.60;;;;;;;;;;4973115;28;20026;-57
2023/11/26 11:49:17;;;;;;;3.15;2.60;;;;;;;;;;4973309;28;20171;-59
2023/11/26 11:51:44;;;;;;;4.50;3.00;;;;;;;;;;4973131;28;20022;-58
2023/11/26 11:54:10;;;;;;;4.65;2.75;;;;;;;;;;4973224;28;20091;-58
2023/11/26 11:56:37;;;;;;;4.18;2.75;;;;;;;;;;4972969;28;20060;-58
2023/11/26 11:59:04;;;;;;;4.78;2.97;;;;;;;;;;4973194;28;20031;-58
2023/11/26 12:01:30;;;;;;;3.63;2.78;;;;;;;;;;4972933;28;20065;-58
2023/11/26 12:04:00;;;;;;;7.35;2.95;;;;;;;;;;4973002;28;20477;-59
2023/11/26 12:06:26;;;;;;;3.47;2.38;;;;;;;;;;4972980;28;20058;-57
2023/11/26 12:08:56;;;;;;;3.95;2.72;;;;;;;;;;4972737;28;20073;-59
2023/11/26 12:11:23;;;;;;;4.88;3.25;;;;;;;;;;4972928;28;20333;-58
2023/11/26 12:13:49;;;;;;;8.73;3.90;;;;;;;;;;4972767;28;20423;-57
2023/11/26 12:16:15;;;;;;;5.72;3.72;;;;;;;;;;4972635;28;20148;-58
2023/11/26 12:18:42;;;;;;;5.80;3.70;;;;;;;;;;4972693;28;20760;-59
2023/11/26 12:21:08;;;;;;;4.88;3.22;;;;;;;;;;4972912;28;20081;-58
2023/11/26 12:23:35;;;;;;;5.50;3.90;;;;;;;;;;4972667;28;20484;-58
2023/11/26 12:26:02;;;;;;;5.80;3.30;;;;;;;;;;4972981;28;20426;-58
2023/11/26 12:28:29;;;;;;;5.82;3.63;;;;;;;;;;4972636;28;20031;-58
2023/11/26 12:30:56;;;;;;;4.78;3.38;;;;;;;;;;4972470;28;20440;-59
2023/11/26 12:33:24;;;;;;;8.48;3.88;;;;;;;;;;4971487;28;20023;-58
2023/11/26 12:35:50;;;;;;;7.88;3.90;;;;;;;;;;4972269;28;20022;-59
2023/11/26 12:38:17;;;;;;;4.72;3.22;;;;;;;;;;4972351;28;20054;-59
2023/11/26 12:40:43;;;;;;;6.05;3.08;;;;;;;;;;4972245;28;20031;-59
2023/11/26 12:43:09;;;;;;;6.10;3.10;;;;;;;;;;4972273;28;20043;-58
2023/11/26 12:45:35;;;;;;;3.88;3.03;;;;;;;;;;4972364;28;20035;-58
2023/11/26 12:48:01;;;;;;;6.88;4.15;;;;;;;;;;4972544;28;20046;-58
2023/11/26 12:50:40;;;;;;;7.05;4.38;;;;;;;;;;4972514;28;20031;-58
2023/11/26 12:53:17;;;;;;;4.88;3.92;;;;;;;;;;4972492;28;20023;-58
2023/11/26 12:55:47;;;;;;;6.80;4.82;;;;;;;;;;4972453;28;20058;-59
2023/11/26 12:58:28;;;;;;;8.85;4.75;;;;;;;;;;4972271;28;20037;-59
2023/11/26 13:00:57;;;;;;;8.40;4.90;;;;;;;;;;4972365;28;20043;-58
2023/11/26 13:03:23;;;;;;;5.68;5.03;;;;;;;;;;4972075;28;20565;-58
2023/11/26 13:05:49;;;;;;;7.10;5.50;;;;;;;;;;4972327;28;20082;-58
2023/11/26 13:08:25;;;;;;;9.40;5.35;;;;;;;;;;4972250;28;20034;-59
2023/11/26 13:10:52;;;;;;;7.65;5.00;;;;;;;;;;4942728;28;20026;-58
2023/11/26 13:13:25;;;;;;;6.47;4.18;;;;;;;;;;4972320;28;20019;-58
2023/11/26 13:15:51;;;;;;;7.65;3.78;;;;;;;;;;4944189;28;20113;-58
2023/11/26 13:18:17;;;;;;;5.60;4.22;;;;;;;;;;4959895;28;20027;-59
2023/11/26 13:20:45;;;;;;;7.22;4.75;;;;;;;;;;4953293;28;20037;-59
2023/11/26 13:23:12;;;;;;;4.38;3.40;;;;;;;;;;4958384;28;20118;-59
2023/11/26 13:25:38;;;;;;;4.90;3.40;;;;;;;;;;4969230;28;20037;-58
2023/11/26 13:28:10;;;;;;;4.20;3.30;;;;;;;;;;4960844;28;20023;-59
2023/11/26 13:30:40;;;;;;;3.70;3.03;;;;;;;;;;4954599;28;20505;-58
2023/11/26 13:33:06;;;;;;;3.58;3.28;;;;;;;;;;4972161;28;20026;-58
2023/11/26 13:35:32;;;;;;;4.18;2.67;;;;;;;;;;4972054;28;20031;-59
2023/11/26 13:37:58;;;;;;;3.63;2.85;;;;;;;;;;4972067;28;20026;-58
2023/11/26 13:40:24;;;;;;;3.45;2.97;;;;;;;;;;4972250;28;20047;-59
2023/11/26 13:42:50;;;;;;;3.50;3.03;;;;;;;;;;4971853;28;20066;-59
2023/11/26 13:45:16;;;;;;;4.35;3.10;;;;;;;;;;4971975;28;20477;-58
2023/11/26 13:47:42;;;;;;;3.67;2.80;;;;;;;;;;4971945;28;20041;-59
2023/11/26 13:50:11;;;;;;;3.45;2.50;;;;;;;;;;4971835;28;20018;-58
2023/11/26 13:52:38;;;;;;;2.72;2.45;;;;;;;;;;4959405;28;20031;-59
2023/11/26 13:55:04;;;;;;;2.65;2.33;;;;;;;;;;4973577;28;20114;-59
2023/11/26 13:57:30;;;;;;;4.65;2.55;;;;;;;;;;4976618;28;20066;-59
2023/11/26 13:59:56;;;;;;;4.50;2.25;;;;;;;;;;4968926;28;20035;-59
2023/11/26 14:02:22;;;;;;;3.47;2.33;;;;;;;;;;4965884;28;20086;-59
2023/11/26 14:04:48;;;;;;;5.15;2.35;;;;;;;;;;4987185;28;20037;-59
2023/11/26 14:07:14;;;;;;;3.65;2.70;;;;;;;;;;4965211;28;20022;-59
2023/11/26 14:09:40;;;;;;;3.63;2.63;;;;;;;;;;4980117;28;20027;-59
2023/11/26 14:12:06;;;;;;;2.92;2.63;;;;;;;;;;4981854;28;20038;-59
2023/11/26 14:14:32;;;;;;;3.70;2.50;;;;;;;;;;4977820;28;20476;-59
2023/11/26 14:16:58;;;;;;;4.85;2.72;;;;;;;;;;4982325;28;20023;-59
2023/11/26 14:19:24;;;;;;;4.70;2.28;;;;;;;;;;4979874;28;20039;-59
2023/11/26 14:21:50;;;;;;;3.90;2.83;;;;;;;;;;4975159;28;20038;-55
2023/11/26 14:24:17;;;;;;;3.35;2.53;;;;;;;;;;4972902;28;20127;-56
2023/11/26 14:26:43;;;;;;;4.18;2.58;;;;;;;;;;4974484;28;20142;-57
2023/11/26 14:29:09;;;;;;;2.58;2.10;;;;;;;;;;4974735;28;20464;-57
2023/11/26 14:31:35;;;;;;;4.40;2.05;;;;;;;;;;4974675;28;20054;-56
2023/11/26 14:34:01;;;;;;;5.20;2.22;;;;;;;;;;4973095;28;20026;-57
2023/11/26 14:36:27;;;;;;;2.78;2.08;;;;;;;;;;4974553;28;20035;-55
2023/11/26 14:38:53;;;;;;;7.15;2.75;;;;;;;;;;4974492;28;20045;-57
2023/11/26 14:41:19;;;;;;;5.18;2.22;;;;;;;;;;4974667;28;20497;-58
2023/11/26 14:43:45;;;;;;;4.28;2.28;;;;;;;;;;4974414;28;20034;-55